KBMT/BMT METAR and TAF weather

Enter ICAO airport designator
Station Type Date Time Source
KBMT METAR 2018/01/16 09:15 UTC NOAA

KBMT 160915Z AUTO 01007KT 10SM OVC018 10/09 A3039 RMK AO2 T01030090


Station Type Date Time Source
KBMT Decoded METAR 2018/01/16 09:15 UTC NOAA

Station name not available
Jan 16, 2018 - 04:15 AM EST / 2018.01.16 0915 UTC
Wind: from the N (010 degrees) at 8 MPH (7 KT):0
Visibility: 10 mile(s):0
Sky conditions: overcast
Temperature: 50.5 F (10.3 C)
Dew Point: 48.2 F (9.0 C)
Relative Humidity: 91%
Pressure (altimeter): 30.39 in. Hg (1029 hPa)
ob: KBMT 160915Z AUTO 01007KT 10SM OVC018 10/09 A3039 RMK AO2 T01030090
cycle: 9

Station Type Date Time Source
KBMT TAF UTC NOAA

Error!


Example: see airport list